Time,TemperatureF,DewpointF,PressureIn,WindDirection,WindDirectionDegrees,WindSpeedMPH,WindSpeedGustMPH,Humidity,HourlyPrecipIn,Conditions,Clouds,dailyrainin,SoftwareType,DateUTC
2013-10-23 00:09:00,54.1,53.0,30.05,NW,305,0.0,0.0,95,0.00,,,0.00,weatherlink.com 1.10,2013-10-23 05:09:00,
2013-10-23 00:24:00,53.3,52.0,30.05,NW,305,0.0,0.0,95,0.00,,,0.00,weatherlink.com 1.10,2013-10-23 05:24:00,
2013-10-23 00:39:00,53.0,52.0,30.06,NW,304,0.0,0.0,95,0.00,,,0.00,weatherlink.com 1.10,2013-10-23 05:39:00,
2013-10-23 00:54:00,52.8,52.0,30.05,NW,305,0.0,0.0,95,0.00,,,0.00,weatherlink.com 1.10,2013-10-23 05:54:00,
2013-10-23 01:09:00,53.0,52.0,30.05,NW,305,0.0,1.0,96,0.00,,,0.00,weatherlink.com 1.10,2013-10-23 06:09:00,
2013-10-23 01:24:00,53.3,52.0,30.05,NW,305,0.0,0.0,96,0.00,,,0.00,weatherlink.com 1.10,2013-10-23 06:24:00,
2013-10-23 01:39:00,52.8,52.0,30.05,NW,305,0.0,0.0,95,0.00,,,0.00,weatherlink.com 1.10,2013-10-23 06:39:00,
2013-10-23 01:54:00,52.9,52.0,30.05,NW,305,0.0,0.0,96,0.00,,,0.00,weatherlink.com 1.10,2013-10-23 06:54:00,
2013-10-23 02:09:00,53.0,52.0,30.05,NW,305,0.0,0.0,96,0.00,,,0.00,weatherlink.com 1.10,2013-10-23 07:09:00,
2013-10-23 02:24:00,52.5,51.0,30.05,NW,305,0.0,0.0,96,0.00,,,0.00,weatherlink.com 1.10,2013-10-23 07:24:00,
2013-10-23 02:39:00,52.0,51.0,30.05,NW,305,0.0,0.0,96,0.00,,,0.00,weatherlink.com 1.10,2013-10-23 07:39:00,
2013-10-23 02:54:00,51.5,50.0,30.05,NW,305,0.0,0.0,96,0.00,,,0.00,weatherlink.com 1.10,2013-10-23 07:54:00,
2013-10-23 03:09:00,51.5,50.0,30.04,NW,305,0.0,0.0,96,0.00,,,0.00,weatherlink.com 1.10,2013-10-23 08:09:00,
2013-10-23 03:24:00,50.7,50.0,30.04,NW,305,0.0,0.0,96,0.00,,,0.00,weatherlink.com 1.10,2013-10-23 08:24:00,
2013-10-23 03:39:00,51.7,51.0,30.05,SSE,162,2.0,3.0,96,0.00,,,0.00,weatherlink.com 1.10,2013-10-23 08:39:00,
2013-10-23 03:54:00,51.6,51.0,30.05,South,170,0.0,0.0,96,0.00,,,0.00,weatherlink.com 1.10,2013-10-23 08:54:00,
2013-10-23 04:09:00,50.9,50.0,30.05,South,171,0.0,0.0,96,0.00,,,0.00,weatherlink.com 1.10,2013-10-23 09:09:00,
2013-10-23 04:24:00,50.4,49.0,30.05,South,171,0.0,0.0,96,0.00,,,0.00,weatherlink.com 1.10,2013-10-23 09:24:00,
2013-10-23 04:39:00,49.9,49.0,30.05,South,170,0.0,0.0,96,0.00,,,0.00,weatherlink.com 1.10,2013-10-23 09:39:00,
2013-10-23 04:54:00,49.6,49.0,30.06,South,170,0.0,0.0,96,0.00,,,0.00,weatherlink.com 1.10,2013-10-23 09:54:00,
2013-10-23 05:09:00,49.3,48.0,30.06,South,170,0.0,0.0,96,0.00,,,0.00,weatherlink.com 1.10,2013-10-23 10:09:00,
2013-10-23 05:24:00,49.4,48.0,30.06,South,170,0.0,0.0,96,0.00,,,0.00,weatherlink.com 1.10,2013-10-23 10:24:00,
2013-10-23 05:39:00,49.3,48.0,30.06,South,171,0.0,0.0,96,0.00,,,0.00,weatherlink.com 1.10,2013-10-23 10:39:00,
2013-10-23 05:54:00,49.4,48.0,30.07,South,170,0.0,0.0,96,0.00,,,0.00,weatherlink.com 1.10,2013-10-23 10:54:00,
2013-10-23 06:09:00,49.5,48.0,30.07,South,171,0.0,0.0,96,0.00,,,0.00,weatherlink.com 1.10,2013-10-23 11:09:00,
2013-10-23 06:24:00,49.8,49.0,30.07,South,171,0.0,0.0,96,0.00,,,0.00,weatherlink.com 1.10,2013-10-23 11:24:00,
2013-10-23 06:39:00,49.7,49.0,30.08,South,171,1.0,1.0,96,0.00,,,0.00,weatherlink.com 1.10,2013-10-23 11:39:00,
2013-10-23 06:54:00,49.9,49.0,30.08,South,170,0.0,0.0,97,0.00,,,0.00,weatherlink.com 1.10,2013-10-23 11:54:00,
2013-10-23 07:09:00,49.6,49.0,30.09,South,170,0.0,0.0,97,0.00,,,0.00,weatherlink.com 1.10,2013-10-23 12:09:00,
2013-10-23 07:25:00,49.1,48.0,30.09,South,171,0.0,0.0,96,0.00,,,0.00,weatherlink.com 1.10,2013-10-23 12:25:00,
2013-10-23 07:40:00,48.9,48.0,30.09,South,171,0.0,0.0,96,0.00,,,0.00,weatherlink.com 1.10,2013-10-23 12:40:00,
2013-10-23 07:55:00,49.6,49.0,30.10,South,170,0.0,0.0,97,0.00,,,0.00,weatherlink.com 1.10,2013-10-23 12:55:00,
2013-10-23 08:10:00,50.3,50.0,30.10,South,170,0.0,0.0,97,0.00,,,0.00,weatherlink.com 1.10,2013-10-23 13:10:00,
2013-10-23 08:25:00,52.0,51.0,30.11,South,170,0.0,0.0,97,0.01,,,0.01,weatherlink.com 1.10,2013-10-23 13:25:00,
2013-10-23 08:40:00,53.7,53.0,30.11,South,170,0.0,0.0,97,0.01,,,0.01,weatherlink.com 1.10,2013-10-23 13:40:00,
2013-10-23 08:55:00,55.8,55.0,30.12,West,262,0.0,1.0,97,0.01,,,0.01,weatherlink.com 1.10,2013-10-23 13:55:00,
2013-10-23 09:10:00,57.4,57.0,30.12,West,261,0.0,0.0,97,0.01,,,0.01,weatherlink.com 1.10,2013-10-23 14:10:00,
2013-10-23 09:25:00,59.9,56.0,30.13,WNW,296,0.0,0.0,87,0.00,,,0.01,weatherlink.com 1.10,2013-10-23 14:25:00,
2013-10-23 09:40:00,63.0,55.0,30.12,ENE,72,1.0,1.0,76,0.00,,,0.01,weatherlink.com 1.10,2013-10-23 14:40:00,
2013-10-23 09:55:00,64.9,55.0,30.13,NNW,340,1.0,3.0,70,0.00,,,0.01,weatherlink.com 1.10,2013-10-23 14:55:00,
2013-10-23 10:10:00,66.2,54.0,30.13,NNE,32,0.0,3.0,66,0.00,,,0.01,weatherlink.com 1.10,2013-10-23 15:10:00,
2013-10-23 10:25:00,67.6,55.0,30.13,East,91,0.0,3.0,64,0.00,,,0.01,weatherlink.com 1.10,2013-10-23 15:25:00,
2013-10-23 10:40:00,68.9,56.0,30.13,ENE,71,0.0,4.0,64,0.00,,,0.01,weatherlink.com 1.10,2013-10-23 15:40:00,
2013-10-23 10:55:00,70.3,55.0,30.13,East,79,0.0,4.0,59,0.00,,,0.01,weatherlink.com 1.10,2013-10-23 15:55:00,
2013-10-23 11:10:00,71.2,55.0,30.13,SE,131,0.0,6.0,56,0.00,,,0.01,weatherlink.com 1.10,2013-10-23 16:10:00,
2013-10-23 11:26:00,72.6,57.0,30.13,ENE,63,4.0,4.0,58,0.00,,,0.01,weatherlink.com 1.10,2013-10-23 16:26:00,
2013-10-23 11:41:00,74.0,56.0,30.13,NNW,340,0.0,4.0,54,0.00,,,0.01,weatherlink.com 1.10,2013-10-23 16:41:00,
2013-10-23 11:56:00,75.0,56.0,30.12,ENE,67,7.0,7.0,52,0.00,,,0.01,weatherlink.com 1.10,2013-10-23 16:56:00,
2013-10-23 12:11:00,74.7,55.0,30.12,ENE,77,0.0,6.0,51,0.00,,,0.01,weatherlink.com 1.10,2013-10-23 17:11:00,
2013-10-23 12:26:00,75.2,55.0,30.12,East,84,2.0,6.0,50,0.00,,,0.01,weatherlink.com 1.10,2013-10-23 17:26:00,
2013-10-23 12:41:00,75.8,56.0,30.11,North,360,1.0,5.0,51,0.00,,,0.01,weatherlink.com 1.10,2013-10-23 17:41:00,
2013-10-23 12:56:00,76.7,56.0,30.11,East,86,0.0,5.0,49,0.00,,,0.01,weatherlink.com 1.10,2013-10-23 17:56:00,
2013-10-23 13:11:00,77.0,56.0,30.11,East,92,1.0,6.0,49,0.00,,,0.01,weatherlink.com 1.10,2013-10-23 18:11:00,
2013-10-23 13:26:00,77.3,54.0,30.10,East,82,1.0,7.0,45,0.00,,,0.01,weatherlink.com 1.10,2013-10-23 18:26:00,
2013-10-23 13:41:00,79.4,56.0,30.09,NE,51,2.0,3.0,44,0.00,,,0.01,weatherlink.com 1.10,2013-10-23 18:41:00,
2013-10-23 14:11:00,79.5,52.0,30.08,NE,46,3.0,5.0,39,0.00,,,0.01,weatherlink.com 1.10,2013-10-23 19:11:00,
2013-10-23 14:26:00,79.0,52.0,30.07,WNW,297,1.0,5.0,39,0.00,,,0.01,weatherlink.com 1.10,2013-10-23 19:26:00,
2013-10-23 14:41:00,79.2,50.0,30.07,WNW,284,1.0,7.0,36,0.00,,,0.01,weatherlink.com 1.10,2013-10-23 19:41:00,
2013-10-23 14:56:00,79.4,50.0,30.07,NW,326,2.0,6.0,36,0.00,,,0.01,weatherlink.com 1.10,2013-10-23 19:56:00,
2013-10-23 15:11:00,78.4,51.0,30.07,WNW,285,2.0,5.0,39,0.00,,,0.01,weatherlink.com 1.10,2013-10-23 20:11:00,
2013-10-23 15:26:00,79.1,51.0,30.07,East,89,0.0,7.0,37,0.00,,,0.01,weatherlink.com 1.10,2013-10-23 20:26:00,
2013-10-23 15:41:00,79.6,51.0,30.06,NW,304,2.0,5.0,37,0.00,,,0.01,weatherlink.com 1.10,2013-10-23 20:41:00,
2013-10-23 15:56:00,79.6,51.0,30.07,East,91,0.0,2.0,37,0.00,,,0.01,weatherlink.com 1.10,2013-10-23 20:56:00,
2013-10-23 16:11:00,78.0,51.0,30.07,ENE,74,0.0,4.0,39,0.00,,,0.01,weatherlink.com 1.10,2013-10-23 21:11:00,
2013-10-23 16:26:00,77.5,52.0,30.07,WNW,302,1.0,5.0,41,0.00,,,0.01,weatherlink.com 1.10,2013-10-23 21:26:00,
2013-10-23 16:41:00,77.5,53.0,30.07,ENE,62,0.0,2.0,42,0.00,,,0.01,weatherlink.com 1.10,2013-10-23 21:41:00,
2013-10-23 16:56:00,77.4,53.0,30.07,NW,321,0.0,3.0,43,0.00,,,0.01,weatherlink.com 1.10,2013-10-23 21:56:00,
2013-10-23 17:11:00,76.9,51.0,30.07,East,85,0.0,1.0,41,0.00,,,0.01,weatherlink.com 1.10,2013-10-23 22:11:00,
2013-10-23 17:26:00,76.2,53.0,30.07,ENE,65,0.0,5.0,44,0.00,,,0.01,weatherlink.com 1.10,2013-10-23 22:26:00,
2013-10-23 17:41:00,75.8,53.0,30.07,East,82,0.0,1.0,46,0.00,,,0.01,weatherlink.com 1.10,2013-10-23 22:41:00,
2013-10-23 17:56:00,74.9,53.0,30.07,ENE,71,0.0,1.0,47,0.00,,,0.01,weatherlink.com 1.10,2013-10-23 22:56:00,
2013-10-23 18:11:00,73.7,54.0,30.07,WNW,302,0.0,0.0,50,0.00,,,0.01,weatherlink.com 1.10,2013-10-23 23:11:00,
2013-10-23 18:26:00,72.1,54.0,30.07,WNW,302,0.0,0.0,54,0.00,,,0.01,weatherlink.com 1.10,2013-10-23 23:26:00,
2013-10-23 18:41:00,70.1,55.0,30.07,WNW,302,0.0,0.0,59,0.00,,,0.01,weatherlink.com 1.10,2013-10-23 23:41:00,
2013-10-23 18:56:00,67.2,55.0,30.08,ENE,78,0.0,2.0,65,0.00,,,0.01,weatherlink.com 1.10,2013-10-23 23:56:00,
2013-10-23 19:11:00,65.2,56.0,30.08,ENE,78,0.0,0.0,73,0.00,,,0.01,weatherlink.com 1.10,2013-10-24 00:11:00,
2013-10-23 19:26:00,63.6,56.0,30.09,ENE,78,0.0,0.0,77,0.00,,,0.01,weatherlink.com 1.10,2013-10-24 00:26:00,
2013-10-23 19:41:00,62.4,56.0,30.09,ENE,78,0.0,0.0,79,0.00,,,0.01,weatherlink.com 1.10,2013-10-24 00:41:00,
2013-10-23 19:56:00,61.2,56.0,30.10,ENE,78,0.0,0.0,82,0.00,,,0.01,weatherlink.com 1.10,2013-10-24 00:56:00,
2013-10-23 20:11:00,60.6,56.0,30.10,ENE,78,0.0,0.0,84,0.00,,,0.01,weatherlink.com 1.10,2013-10-24 01:11:00,
2013-10-23 20:26:00,59.6,56.0,30.10,ENE,78,0.0,0.0,86,0.00,,,0.01,weatherlink.com 1.10,2013-10-24 01:26:00,
2013-10-23 20:41:00,59.0,55.0,30.11,ENE,77,0.0,0.0,87,0.00,,,0.01,weatherlink.com 1.10,2013-10-24 01:41:00,
2013-10-23 20:56:00,58.6,55.0,30.11,ENE,78,0.0,0.0,88,0.00,,,0.01,weatherlink.com 1.10,2013-10-24 01:56:00,
2013-10-23 21:11:00,57.9,54.0,30.10,ENE,77,0.0,0.0,88,0.00,,,0.01,weatherlink.com 1.10,2013-10-24 02:11:00,
2013-10-23 21:26:00,57.8,55.0,30.11,ENE,77,0.0,0.0,89,0.00,,,0.01,weatherlink.com 1.10,2013-10-24 02:26:00,
2013-10-23 21:41:00,57.9,55.0,30.11,ENE,78,0.0,0.0,90,0.00,,,0.01,weatherlink.com 1.10,2013-10-24 02:41:00,
2013-10-23 21:56:00,57.1,54.0,30.11,ENE,77,0.0,0.0,89,0.00,,,0.01,weatherlink.com 1.10,2013-10-24 02:56:00,
2013-10-23 22:11:00,56.7,54.0,30.11,ENE,77,0.0,0.0,90,0.00,,,0.01,weatherlink.com 1.10,2013-10-24 03:11:00,
2013-10-23 22:26:00,56.2,54.0,30.11,ENE,78,0.0,0.0,91,0.00,,,0.01,weatherlink.com 1.10,2013-10-24 03:26:00,
2013-10-23 22:41:00,56.1,54.0,30.12,ENE,78,0.0,0.0,92,0.00,,,0.01,weatherlink.com 1.10,2013-10-24 03:41:00,
2013-10-23 22:56:00,55.2,53.0,30.11,ENE,78,0.0,0.0,91,0.00,,,0.01,weatherlink.com 1.10,2013-10-24 03:56:00,
2013-10-23 23:11:00,55.1,53.0,30.11,ENE,78,0.0,0.0,93,0.00,,,0.01,weatherlink.com 1.10,2013-10-24 04:11:00,
2013-10-23 23:26:00,54.9,53.0,30.11,ENE,77,0.0,0.0,92,0.00,,,0.01,weatherlink.com 1.10,2013-10-24 04:26:00,
2013-10-23 23:41:00,55.1,53.0,30.12,ESE,103,0.0,0.0,93,0.00,,,0.01,weatherlink.com 1.10,2013-10-24 04:41:00,
2013-10-23 23:57:00,54.8,53.0,30.11,ESE,105,0.0,0.0,93,0.00,,,0.00,weatherlink.com 1.10,2013-10-24 04:57:00,